YYZ weather

Lester B. Pearson International Airport
Toronto, Ontario, Canada

Public forecast

Using degrees Celsius for public forecast. Weather courtesy of forecast.io.

METAR (pilot weather report)

Retrieved 2017/12/10 22:00 UTC (58 minutes ago):

CYYZ 102200Z 25013G18KT 15SM BKN036 OVC088 M02/M07 A2982 RMK SC6AC2 SLP107

TAF (pilot weather forecast)

Retrieved 2017/12/10 21:42 UTC (1 hour ago):

TAF CYYZ 102041Z 1021/1124 25015G25KT P6SM -SN SCT020 OVC060 TEMPO 1021/1102 4SM -SN OVC020 FM110200 25012KT 6SM -SN OVC030 TEMPO 1102/1104 11/4SM -SN OVC015 BECMG 1102/1104 32012KT FM110400 35012KT P6SM -SHSN BKN030 FM110600 35010KT P6SM SCT030 FM111500 VRB03KT P6SM BKN180 FM112100 10010KT 3SM -SN BKN020 OVC080 PROB30 1121/1124 2SM -SN OVC020 RMK NXT FCST BY 110000Z